sensor_id;sensor_type;location;lat;lon;timestamp;temperature;humidity
68485;DHT22;55472;50.060;21.960;2022-11-23T00:01:29;-1.60;99.90
68485;DHT22;55472;50.060;21.960;2022-11-23T00:04:05;-1.60;99.90
68485;DHT22;55472;50.060;21.960;2022-11-23T00:06:34;-1.60;99.90
68485;DHT22;55472;50.060;21.960;2022-11-23T00:09:01;-1.70;99.90
68485;DHT22;55472;50.060;21.960;2022-11-23T00:11:27;-1.60;99.90
68485;DHT22;55472;50.060;21.960;2022-11-23T00:13:54;-1.60;99.90
68485;DHT22;55472;50.060;21.960;2022-11-23T00:16:26;-1.50;99.90
68485;DHT22;55472;50.060;21.960;2022-11-23T00:18:58;-1.50;99.90
68485;DHT22;55472;50.060;21.960;2022-11-23T00:21:27;-1.60;99.90
68485;DHT22;55472;50.060;21.960;2022-11-23T00:23:54;-1.60;99.90
68485;DHT22;55472;50.060;21.960;2022-11-23T00:26:20;-1.60;99.90
68485;DHT22;55472;50.060;21.960;2022-11-23T00:28:47;-1.60;99.90
68485;DHT22;55472;50.060;21.960;2022-11-23T00:31:15;-1.60;99.90
68485;DHT22;55472;50.060;21.960;2022-11-23T00:33:51;-1.50;99.90
68485;DHT22;55472;50.060;21.960;2022-11-23T00:36:18;-1.60;99.90
68485;DHT22;55472;50.060;21.960;2022-11-23T00:38:46;-1.60;99.90
68485;DHT22;55472;50.060;21.960;2022-11-23T00:41:14;-1.60;99.90
68485;DHT22;55472;50.060;21.960;2022-11-23T00:43:42;-1.50;99.90
68485;DHT22;55472;50.060;21.960;2022-11-23T00:48:48;-1.60;99.90
68485;DHT22;55472;50.060;21.960;2022-11-23T00:51:18;-1.60;99.90
68485;DHT22;55472;50.060;21.960;2022-11-23T00:53:46;-1.60;99.90
68485;DHT22;55472;50.060;21.960;2022-11-23T00:56:13;-1.50;99.90
68485;DHT22;55472;50.060;21.960;2022-11-23T00:58:39;-1.50;99.90
68485;DHT22;55472;50.060;21.960;2022-11-23T01:01:11;-1.60;99.90
68485;DHT22;55472;50.060;21.960;2022-11-23T01:03:41;-1.50;99.90
68485;DHT22;55472;50.060;21.960;2022-11-23T01:06:17;-1.60;99.90
68485;DHT22;55472;50.060;21.960;2022-11-23T01:08:50;-1.60;99.90
68485;DHT22;55472;50.060;21.960;2022-11-23T01:11:24;-1.60;99.90
68485;DHT22;55472;50.060;21.960;2022-11-23T01:13:52;-1.60;99.90
68485;DHT22;55472;50.060;21.960;2022-11-23T01:19:00;-1.70;99.90
68485;DHT22;55472;50.060;21.960;2022-11-23T01:21:29;-1.70;99.90
68485;DHT22;55472;50.060;21.960;2022-11-23T01:23:56;-1.60;99.90
68485;DHT22;55472;50.060;21.960;2022-11-23T01:26:22;-1.60;99.90
68485;DHT22;55472;50.060;21.960;2022-11-23T01:28:49;-1.70;99.90
68485;DHT22;55472;50.060;21.960;2022-11-23T01:31:20;-1.70;99.90
68485;DHT22;55472;50.060;21.960;2022-11-23T01:33:52;-1.60;99.90
68485;DHT22;55472;50.060;21.960;2022-11-23T01:36:21;-1.70;99.90
68485;DHT22;55472;50.060;21.960;2022-11-23T01:38:49;-1.60;99.90
68485;DHT22;55472;50.060;21.960;2022-11-23T01:41:18;-1.60;99.90
68485;DHT22;55472;50.060;21.960;2022-11-23T01:43:46;-1.60;99.90
68485;DHT22;55472;50.060;21.960;2022-11-23T01:46:12;-1.60;99.90
68485;DHT22;55472;50.060;21.960;2022-11-23T01:48:55;-1.60;99.90
68485;DHT22;55472;50.060;21.960;2022-11-23T01:51:25;-1.60;99.90
68485;DHT22;55472;50.060;21.960;2022-11-23T01:53:54;-1.50;99.90
68485;DHT22;55472;50.060;21.960;2022-11-23T01:56:28;-1.50;99.90
68485;DHT22;55472;50.060;21.960;2022-11-23T01:59:02;-1.50;99.90
68485;DHT22;55472;50.060;21.960;2022-11-23T02:04:07;-1.50;99.90
68485;DHT22;55472;50.060;21.960;2022-11-23T02:06:36;-1.50;99.90
68485;DHT22;55472;50.060;21.960;2022-11-23T02:09:02;-1.60;99.90
68485;DHT22;55472;50.060;21.960;2022-11-23T02:11:28;-1.60;99.90
68485;DHT22;55472;50.060;21.960;2022-11-23T02:13:54;-1.70;99.90
68485;DHT22;55472;50.060;21.960;2022-11-23T02:16:21;-1.60;99.90
68485;DHT22;55472;50.060;21.960;2022-11-23T02:18:49;-1.60;99.90
68485;DHT22;55472;50.060;21.960;2022-11-23T02:21:16;-1.60;99.90
68485;DHT22;55472;50.060;21.960;2022-11-23T02:23:58;-1.70;99.90
68485;DHT22;55472;50.060;21.960;2022-11-23T02:26:32;-1.70;99.90
68485;DHT22;55472;50.060;21.960;2022-11-23T02:31:53;-1.60;99.90
68485;DHT22;55472;50.060;21.960;2022-11-23T02:34:19;-1.60;99.90
68485;DHT22;55472;50.060;21.960;2022-11-23T02:36:48;-1.70;99.90
68485;DHT22;55472;50.060;21.960;2022-11-23T02:39:24;-1.60;99.90
68485;DHT22;55472;50.060;21.960;2022-11-23T02:41:54;-1.60;99.90
68485;DHT22;55472;50.060;21.960;2022-11-23T02:47:23;-1.60;99.90
68485;DHT22;55472;50.060;21.960;2022-11-23T02:49:49;-1.60;99.90
68485;DHT22;55472;50.060;21.960;2022-11-23T02:52:17;-1.60;99.90
68485;DHT22;55472;50.060;21.960;2022-11-23T02:54:43;-1.60;99.90
68485;DHT22;55472;50.060;21.960;2022-11-23T02:57:09;-1.60;99.90
68485;DHT22;55472;50.060;21.960;2022-11-23T02:59:35;-1.60;99.90
68485;DHT22;55472;50.060;21.960;2022-11-23T03:02:04;-1.60;99.90
68485;DHT22;55472;50.060;21.960;2022-11-23T03:04:31;-1.50;99.90
68485;DHT22;55472;50.060;21.960;2022-11-23T03:06:57;-1.50;99.90
68485;DHT22;55472;50.060;21.960;2022-11-23T03:09:23;-1.50;99.90
68485;DHT22;55472;50.060;21.960;2022-11-23T03:11:51;-1.50;99.90
68485;DHT22;55472;50.060;21.960;2022-11-23T03:14:18;-1.40;99.90
68485;DHT22;55472;50.060;21.960;2022-11-23T03:16:44;-1.40;99.90
68485;DHT22;55472;50.060;21.960;2022-11-23T03:19:10;-1.40;99.90
68485;DHT22;55472;50.060;21.960;2022-11-23T03:21:36;-1.40;99.90
68485;DHT22;55472;50.060;21.960;2022-11-23T03:24:02;-1.40;99.90
68485;DHT22;55472;50.060;21.960;2022-11-23T03:26:28;-1.40;99.90
68485;DHT22;55472;50.060;21.960;2022-11-23T03:28:54;-1.40;99.90
68485;DHT22;55472;50.060;21.960;2022-11-23T03:31:20;-1.40;99.90
68485;DHT22;55472;50.060;21.960;2022-11-23T03:33:46;-1.40;99.90
68485;DHT22;55472;50.060;21.960;2022-11-23T03:36:12;-1.40;99.90
68485;DHT22;55472;50.060;21.960;2022-11-23T03:38:38;-1.30;99.90
68485;DHT22;55472;50.060;21.960;2022-11-23T03:41:04;-1.30;99.90
68485;DHT22;55472;50.060;21.960;2022-11-23T03:43:30;-1.30;99.90
68485;DHT22;55472;50.060;21.960;2022-11-23T03:45:56;-1.30;99.90
68485;DHT22;55472;50.060;21.960;2022-11-23T03:48:22;-1.30;99.90
68485;DHT22;55472;50.060;21.960;2022-11-23T03:50:48;-1.20;99.90
68485;DHT22;55472;50.060;21.960;2022-11-23T03:53:14;-1.20;99.90
68485;DHT22;55472;50.060;21.960;2022-11-23T03:55:40;-1.20;99.90
68485;DHT22;55472;50.060;21.960;2022-11-23T03:58:06;-1.20;99.90
68485;DHT22;55472;50.060;21.960;2022-11-23T04:00:33;-1.30;99.90
68485;DHT22;55472;50.060;21.960;2022-11-23T04:02:58;-1.30;99.90
68485;DHT22;55472;50.060;21.960;2022-11-23T04:05:25;-1.30;99.90
68485;DHT22;55472;50.060;21.960;2022-11-23T04:07:52;-1.30;99.90
68485;DHT22;55472;50.060;21.960;2022-11-23T04:10:18;-1.30;99.90
68485;DHT22;55472;50.060;21.960;2022-11-23T04:12:48;-1.30;99.90
68485;DHT22;55472;50.060;21.960;2022-11-23T04:15:15;-1.30;99.90
68485;DHT22;55472;50.060;21.960;2022-11-23T04:17:41;-1.40;99.90
68485;DHT22;55472;50.060;21.960;2022-11-23T04:20:07;-1.40;99.90
68485;DHT22;55472;50.060;21.960;2022-11-23T04:22:33;-1.40;99.90
68485;DHT22;55472;50.060;21.960;2022-11-23T04:24:59;-1.40;99.90
68485;DHT22;55472;50.060;21.960;2022-11-23T04:27:25;-1.50;99.90
68485;DHT22;55472;50.060;21.960;2022-11-23T04:29:51;-1.50;99.90
68485;DHT22;55472;50.060;21.960;2022-11-23T04:32:17;-1.50;99.90
68485;DHT22;55472;50.060;21.960;2022-11-23T04:34:43;-1.60;99.90
68485;DHT22;55472;50.060;21.960;2022-11-23T04:37:09;-1.60;99.90
68485;DHT22;55472;50.060;21.960;2022-11-23T04:39:36;-1.60;99.90
68485;DHT22;55472;50.060;21.960;2022-11-23T04:42:01;-1.60;99.90
68485;DHT22;55472;50.060;21.960;2022-11-23T04:44:28;-1.60;99.90
68485;DHT22;55472;50.060;21.960;2022-11-23T04:46:53;-1.60;99.90
68485;DHT22;55472;50.060;21.960;2022-11-23T04:49:20;-1.60;99.90
68485;DHT22;55472;50.060;21.960;2022-11-23T04:51:45;-1.70;99.90
68485;DHT22;55472;50.060;21.960;2022-11-23T04:54:12;-1.70;99.90
68485;DHT22;55472;50.060;21.960;2022-11-23T04:56:37;-1.70;99.90
68485;DHT22;55472;50.060;21.960;2022-11-23T04:59:04;-1.70;99.90
68485;DHT22;55472;50.060;21.960;2022-11-23T05:01:29;-1.80;99.90
68485;DHT22;55472;50.060;21.960;2022-11-23T05:03:56;-1.70;99.90
68485;DHT22;55472;50.060;21.960;2022-11-23T05:06:22;-1.70;99.90
68485;DHT22;55472;50.060;21.960;2022-11-23T05:08:48;-1.70;99.90
68485;DHT22;55472;50.060;21.960;2022-11-23T05:11:14;-1.70;99.90
68485;DHT22;55472;50.060;21.960;2022-11-23T05:13:40;-1.70;99.90
68485;DHT22;55472;50.060;21.960;2022-11-23T05:16:06;-1.70;99.90
68485;DHT22;55472;50.060;21.960;2022-11-23T05:18:32;-1.70;99.90
68485;DHT22;55472;50.060;21.960;2022-11-23T05:20:58;-1.70;99.90
68485;DHT22;55472;50.060;21.960;2022-11-23T05:23:24;-1.80;99.90
68485;DHT22;55472;50.060;21.960;2022-11-23T05:25:50;-1.70;99.90
68485;DHT22;55472;50.060;21.960;2022-11-23T05:28:19;-1.70;99.90
68485;DHT22;55472;50.060;21.960;2022-11-23T05:30:46;-1.70;99.90
68485;DHT22;55472;50.060;21.960;2022-11-23T05:33:12;-1.70;99.90
68485;DHT22;55472;50.060;21.960;2022-11-23T05:35:38;-1.80;99.90
68485;DHT22;55472;50.060;21.960;2022-11-23T05:38:05;-1.70;99.90
68485;DHT22;55472;50.060;21.960;2022-11-23T05:40:31;-1.70;99.90
68485;DHT22;55472;50.060;21.960;2022-11-23T05:42:58;-1.70;99.90
68485;DHT22;55472;50.060;21.960;2022-11-23T05:45:25;-1.70;99.90
68485;DHT22;55472;50.060;21.960;2022-11-23T05:47:53;-1.70;99.90
68485;DHT22;55472;50.060;21.960;2022-11-23T05:50:22;-1.60;99.90
68485;DHT22;55472;50.060;21.960;2022-11-23T05:52:50;-1.60;99.90
68485;DHT22;55472;50.060;21.960;2022-11-23T05:55:16;-1.60;99.90
68485;DHT22;55472;50.060;21.960;2022-11-23T05:57:42;-1.70;99.90
68485;DHT22;55472;50.060;21.960;2022-11-23T06:00:09;-1.70;99.90
68485;DHT22;55472;50.060;21.960;2022-11-23T06:02:36;-1.70;99.90
68485;DHT22;55472;50.060;21.960;2022-11-23T06:05:03;-1.70;99.90
68485;DHT22;55472;50.060;21.960;2022-11-23T06:07:34;-1.70;99.90
68485;DHT22;55472;50.060;21.960;2022-11-23T06:10:00;-1.80;99.90
68485;DHT22;55472;50.060;21.960;2022-11-23T06:12:28;-1.80;99.90
68485;DHT22;55472;50.060;21.960;2022-11-23T06:14:54;-1.80;99.90
68485;DHT22;55472;50.060;21.960;2022-11-23T06:17:20;-1.80;99.90
68485;DHT22;55472;50.060;21.960;2022-11-23T06:19:46;-1.80;99.90
68485;DHT22;55472;50.060;21.960;2022-11-23T06:22:13;-1.80;99.90
68485;DHT22;55472;50.060;21.960;2022-11-23T06:24:40;-1.80;99.90
68485;DHT22;55472;50.060;21.960;2022-11-23T06:27:06;-1.80;99.90
68485;DHT22;55472;50.060;21.960;2022-11-23T06:29:32;-1.80;99.90
68485;DHT22;55472;50.060;21.960;2022-11-23T06:31:58;-1.80;99.90
68485;DHT22;55472;50.060;21.960;2022-11-23T06:34:24;-1.80;99.90
68485;DHT22;55472;50.060;21.960;2022-11-23T06:36:50;-1.80;99.90
68485;DHT22;55472;50.060;21.960;2022-11-23T06:39:16;-1.80;99.90
68485;DHT22;55472;50.060;21.960;2022-11-23T06:41:43;-1.80;99.90
68485;DHT22;55472;50.060;21.960;2022-11-23T06:44:09;-1.80;99.90
68485;DHT22;55472;50.060;21.960;2022-11-23T06:46:35;-1.80;99.90
68485;DHT22;55472;50.060;21.960;2022-11-23T06:49:01;-1.70;99.90
68485;DHT22;55472;50.060;21.960;2022-11-23T06:51:27;-1.70;99.90
68485;DHT22;55472;50.060;21.960;2022-11-23T06:53:53;-1.70;99.90
68485;DHT22;55472;50.060;21.960;2022-11-23T06:56:19;-1.80;99.90
68485;DHT22;55472;50.060;21.960;2022-11-23T06:58:45;-1.70;99.90
68485;DHT22;55472;50.060;21.960;2022-11-23T07:01:14;-1.70;99.90
68485;DHT22;55472;50.060;21.960;2022-11-23T07:03:40;-1.80;99.90
68485;DHT22;55472;50.060;21.960;2022-11-23T07:06:08;-1.70;99.90
68485;DHT22;55472;50.060;21.960;2022-11-23T07:08:35;-1.70;99.90
68485;DHT22;55472;50.060;21.960;2022-11-23T07:11:05;-1.70;99.90
68485;DHT22;55472;50.060;21.960;2022-11-23T07:13:33;-1.70;99.90
68485;DHT22;55472;50.060;21.960;2022-11-23T07:15:59;-1.70;99.90
68485;DHT22;55472;50.060;21.960;2022-11-23T07:18:25;-1.70;99.90
68485;DHT22;55472;50.060;21.960;2022-11-23T07:20:52;-1.60;99.90
68485;DHT22;55472;50.060;21.960;2022-11-23T07:23:18;-1.60;99.90
68485;DHT22;55472;50.060;21.960;2022-11-23T07:25:44;-1.60;99.90
68485;DHT22;55472;50.060;21.960;2022-11-23T07:28:11;-1.60;99.90
68485;DHT22;55472;50.060;21.960;2022-11-23T07:30:37;-1.50;99.90
68485;DHT22;55472;50.060;21.960;2022-11-23T07:33:05;-1.50;99.90
68485;DHT22;55472;50.060;21.960;2022-11-23T07:35:34;-1.50;99.90
68485;DHT22;55472;50.060;21.960;2022-11-23T07:38:01;-1.50;99.90
68485;DHT22;55472;50.060;21.960;2022-11-23T07:40:28;-1.50;99.90
68485;DHT22;55472;50.060;21.960;2022-11-23T07:43:01;-1.40;99.90
68485;DHT22;55472;50.060;21.960;2022-11-23T07:45:28;-1.40;99.90
68485;DHT22;55472;50.060;21.960;2022-11-23T07:47:59;-1.40;99.90
68485;DHT22;55472;50.060;21.960;2022-11-23T07:50:27;-1.40;99.90
68485;DHT22;55472;50.060;21.960;2022-11-23T07:52:53;-1.40;99.90
68485;DHT22;55472;50.060;21.960;2022-11-23T07:55:20;-1.40;99.90
68485;DHT22;55472;50.060;21.960;2022-11-23T07:57:46;-1.40;99.90
68485;DHT22;55472;50.060;21.960;2022-11-23T08:00:12;-1.40;99.90
68485;DHT22;55472;50.060;21.960;2022-11-23T08:02:39;-1.30;99.90
68485;DHT22;55472;50.060;21.960;2022-11-23T08:05:06;-1.40;99.90
68485;DHT22;55472;50.060;21.960;2022-11-23T08:07:32;-1.30;99.90
68485;DHT22;55472;50.060;21.960;2022-11-23T08:09:58;-1.30;99.90
68485;DHT22;55472;50.060;21.960;2022-11-23T08:12:24;-1.20;99.90
68485;DHT22;55472;50.060;21.960;2022-11-23T08:14:50;-1.20;99.90
68485;DHT22;55472;50.060;21.960;2022-11-23T08:17:16;-1.20;99.90
68485;DHT22;55472;50.060;21.960;2022-11-23T08:19:42;-1.20;99.90
68485;DHT22;55472;50.060;21.960;2022-11-23T08:22:08;-1.20;99.90
68485;DHT22;55472;50.060;21.960;2022-11-23T08:24:34;-1.20;99.90
68485;DHT22;55472;50.060;21.960;2022-11-23T08:27:00;-1.20;99.90
68485;DHT22;55472;50.060;21.960;2022-11-23T08:29:28;-1.20;99.90
68485;DHT22;55472;50.060;21.960;2022-11-23T08:31:54;-1.20;99.90
68485;DHT22;55472;50.060;21.960;2022-11-23T08:34:20;-1.20;99.90
68485;DHT22;55472;50.060;21.960;2022-11-23T08:36:46;-1.20;99.90
68485;DHT22;55472;50.060;21.960;2022-11-23T08:39:13;-1.10;99.90
68485;DHT22;55472;50.060;21.960;2022-11-23T08:41:40;-1.10;99.90
68485;DHT22;55472;50.060;21.960;2022-11-23T08:44:06;-1.20;99.90
68485;DHT22;55472;50.060;21.960;2022-11-23T08:46:37;-1.20;99.90
68485;DHT22;55472;50.060;21.960;2022-11-23T08:49:04;-1.20;99.90
68485;DHT22;55472;50.060;21.960;2022-11-23T08:51:30;-1.20;99.90
68485;DHT22;55472;50.060;21.960;2022-11-23T08:53:57;-1.20;99.90
68485;DHT22;55472;50.060;21.960;2022-11-23T08:56:23;-1.30;99.90
68485;DHT22;55472;50.060;21.960;2022-11-23T08:58:49;-1.30;99.90
68485;DHT22;55472;50.060;21.960;2022-11-23T09:01:16;-1.30;99.90
68485;DHT22;55472;50.060;21.960;2022-11-23T09:03:42;-1.30;99.90
68485;DHT22;55472;50.060;21.960;2022-11-23T09:06:09;-1.30;99.90
68485;DHT22;55472;50.060;21.960;2022-11-23T09:08:36;-1.30;99.90
68485;DHT22;55472;50.060;21.960;2022-11-23T09:11:04;-1.30;99.90
68485;DHT22;55472;50.060;21.960;2022-11-23T09:13:34;-1.30;99.90
68485;DHT22;55472;50.060;21.960;2022-11-23T09:16:02;-1.30;99.90
68485;DHT22;55472;50.060;21.960;2022-11-23T09:18:30;-1.30;99.90
68485;DHT22;55472;50.060;21.960;2022-11-23T09:20:56;-1.20;99.90
68485;DHT22;55472;50.060;21.960;2022-11-23T09:23:23;-1.20;99.90
68485;DHT22;55472;50.060;21.960;2022-11-23T09:25:51;-1.20;99.90
68485;DHT22;55472;50.060;21.960;2022-11-23T09:28:18;-1.20;99.90
68485;DHT22;55472;50.060;21.960;2022-11-23T09:30:49;-1.20;99.90
68485;DHT22;55472;50.060;21.960;2022-11-23T09:33:15;-1.20;99.90
68485;DHT22;55472;50.060;21.960;2022-11-23T09:35:41;-1.20;99.90
68485;DHT22;55472;50.060;21.960;2022-11-23T09:38:07;-1.20;99.90
68485;DHT22;55472;50.060;21.960;2022-11-23T09:40:37;-1.20;99.90
68485;DHT22;55472;50.060;21.960;2022-11-23T09:46:58;-1.30;99.90
68485;DHT22;55472;50.060;21.960;2022-11-23T09:49:36;-1.30;99.90
68485;DHT22;55472;50.060;21.960;2022-11-23T09:52:15;-1.30;99.90
68485;DHT22;55472;50.060;21.960;2022-11-23T09:54:45;-1.30;99.90
68485;DHT22;55472;50.060;21.960;2022-11-23T09:57:16;-1.30;99.90
68485;DHT22;55472;50.060;21.960;2022-11-23T09:59:56;-1.20;99.90
68485;DHT22;55472;50.060;21.960;2022-11-23T10:02:26;-1.20;99.90
68485;DHT22;55472;50.060;21.960;2022-11-23T10:04:58;-1.20;99.90
68485;DHT22;55472;50.060;21.960;2022-11-23T10:07:46;-1.20;99.90
68485;DHT22;55472;50.060;21.960;2022-11-23T10:10:38;-1.20;99.90
68485;DHT22;55472;50.060;21.960;2022-11-23T10:13:19;-1.20;99.90
68485;DHT22;55472;50.060;21.960;2022-11-23T10:19:19;-1.20;99.90
68485;DHT22;55472;50.060;21.960;2022-11-23T10:22:02;-1.20;99.90
68485;DHT22;55472;50.060;21.960;2022-11-23T10:24:38;-1.20;99.90
68485;DHT22;55472;50.060;21.960;2022-11-23T10:27:15;-1.20;99.90
68485;DHT22;55472;50.060;21.960;2022-11-23T10:29:44;-1.10;99.90
68485;DHT22;55472;50.060;21.960;2022-11-23T10:32:37;-1.10;99.90
68485;DHT22;55472;50.060;21.960;2022-11-23T10:35:29;-1.10;99.90
68485;DHT22;55472;50.060;21.960;2022-11-23T10:38:10;-1.10;99.90
68485;DHT22;55472;50.060;21.960;2022-11-23T10:41:11;-1.10;99.90
68485;DHT22;55472;50.060;21.960;2022-11-23T10:43:55;-1.10;99.90
68485;DHT22;55472;50.060;21.960;2022-11-23T10:49:27;-1.10;99.90
68485;DHT22;55472;50.060;21.960;2022-11-23T10:51:57;-1.10;99.90
68485;DHT22;55472;50.060;21.960;2022-11-23T10:54:35;-1.10;99.90
68485;DHT22;55472;50.060;21.960;2022-11-23T10:57:27;-1.10;99.90
68485;DHT22;55472;50.060;21.960;2022-11-23T11:02:39;-1.10;99.90
68485;DHT22;55472;50.060;21.960;2022-11-23T11:05:33;-1.10;99.90
68485;DHT22;55472;50.060;21.960;2022-11-23T11:08:11;-1.10;99.90
68485;DHT22;55472;50.060;21.960;2022-11-23T11:10:41;-1.10;99.90
68485;DHT22;55472;50.060;21.960;2022-11-23T11:13:21;-1.00;99.90
68485;DHT22;55472;50.060;21.960;2022-11-23T11:16:00;-1.00;99.90
68485;DHT22;55472;50.060;21.960;2022-11-23T11:18:34;-1.00;99.90
68485;DHT22;55472;50.060;21.960;2022-11-23T11:21:05;-1.00;99.90
68485;DHT22;55472;50.060;21.960;2022-11-23T11:23:33;-1.00;99.90
68485;DHT22;55472;50.060;21.960;2022-11-23T11:26:22;-1.00;99.90
68485;DHT22;55472;50.060;21.960;2022-11-23T11:28:51;-0.90;99.90
68485;DHT22;55472;50.060;21.960;2022-11-23T11:34:33;-0.90;99.90
68485;DHT22;55472;50.060;21.960;2022-11-23T11:37:29;-0.90;99.90
68485;DHT22;55472;50.060;21.960;2022-11-23T11:40:06;-0.80;99.90
68485;DHT22;55472;50.060;21.960;2022-11-23T11:43:16;-0.80;99.90
68485;DHT22;55472;50.060;21.960;2022-11-23T11:45:47;-0.80;99.90
68485;DHT22;55472;50.060;21.960;2022-11-23T11:48:22;-0.70;99.90
68485;DHT22;55472;50.060;21.960;2022-11-23T11:51:03;-0.70;99.90
68485;DHT22;55472;50.060;21.960;2022-11-23T11:53:44;-0.80;99.90
68485;DHT22;55472;50.060;21.960;2022-11-23T11:56:29;-0.80;99.80
68485;DHT22;55472;50.060;21.960;2022-11-23T11:59:24;-0.80;99.90
68485;DHT22;55472;50.060;21.960;2022-11-23T12:07:45;-0.80;99.90
68485;DHT22;55472;50.060;21.960;2022-11-23T12:13:19;-0.80;99.90
68485;DHT22;55472;50.060;21.960;2022-11-23T12:24:34;-0.80;99.90
68485;DHT22;55472;50.060;21.960;2022-11-23T12:33:50;-0.80;99.90
68485;DHT22;55472;50.060;21.960;2022-11-23T12:36:47;-0.80;99.90
68485;DHT22;55472;50.060;21.960;2022-11-23T12:50:34;-0.90;99.90
68485;DHT22;55472;50.060;21.960;2022-11-23T12:58:42;-0.90;99.90
68485;DHT22;55472;50.060;21.960;2022-11-23T13:01:14;-0.90;99.90
68485;DHT22;55472;50.060;21.960;2022-11-23T13:13:02;-0.90;98.80
68485;DHT22;55472;50.060;21.960;2022-11-23T13:15:45;-0.90;98.80
68485;DHT22;55472;50.060;21.960;2022-11-23T13:21:39;-0.90;99.30
68485;DHT22;55472;50.060;21.960;2022-11-23T13:32:45;-1.00;99.70
68485;DHT22;55472;50.060;21.960;2022-11-23T13:40:25;-1.10;99.80
68485;DHT22;55472;50.060;21.960;2022-11-23T13:42:58;-1.10;99.90
68485;DHT22;55472;50.060;21.960;2022-11-23T13:45:31;-1.10;99.90
68485;DHT22;55472;50.060;21.960;2022-11-23T13:50:59;-1.10;99.90
68485;DHT22;55472;50.060;21.960;2022-11-23T13:53:38;-1.10;99.40
68485;DHT22;55472;50.060;21.960;2022-11-23T13:56:33;-1.10;99.10
68485;DHT22;55472;50.060;21.960;2022-11-23T13:59:28;-1.10;99.00
68485;DHT22;55472;50.060;21.960;2022-11-23T14:04:32;-1.10;99.20
68485;DHT22;55472;50.060;21.960;2022-11-23T14:07:04;-1.10;99.40
68485;DHT22;55472;50.060;21.960;2022-11-23T14:09:57;-1.10;99.40
68485;DHT22;55472;50.060;21.960;2022-11-23T14:12:35;-1.10;99.20
68485;DHT22;55472;50.060;21.960;2022-11-23T14:15:15;-1.10;99.60
68485;DHT22;55472;50.060;21.960;2022-11-23T14:20:45;-1.10;99.90
68485;DHT22;55472;50.060;21.960;2022-11-23T14:35:11;-1.10;99.90
68485;DHT22;55472;50.060;21.960;2022-11-23T14:41:03;-1.10;99.90
68485;DHT22;55472;50.060;21.960;2022-11-23T14:43:33;-1.10;99.90
68485;DHT22;55472;50.060;21.960;2022-11-23T14:46:04;-1.00;99.90
68485;DHT22;55472;50.060;21.960;2022-11-23T14:48:34;-1.10;99.90
68485;DHT22;55472;50.060;21.960;2022-11-23T14:51:05;-1.10;99.90
68485;DHT22;55472;50.060;21.960;2022-11-23T14:53:42;-1.10;99.90
68485;DHT22;55472;50.060;21.960;2022-11-23T14:59:08;-1.10;99.90
68485;DHT22;55472;50.060;21.960;2022-11-23T15:01:44;-1.00;99.90
68485;DHT22;55472;50.060;21.960;2022-11-23T15:06:56;-1.00;99.80
68485;DHT22;55472;50.060;21.960;2022-11-23T15:12:23;-1.10;99.90
68485;DHT22;55472;50.060;21.960;2022-11-23T15:14:51;-1.10;99.90
68485;DHT22;55472;50.060;21.960;2022-11-23T15:17:20;-1.10;99.90
68485;DHT22;55472;50.060;21.960;2022-11-23T15:22:20;-1.10;99.90
68485;DHT22;55472;50.060;21.960;2022-11-23T15:24:47;-1.10;99.90
68485;DHT22;55472;50.060;21.960;2022-11-23T15:27:15;-1.10;99.90
68485;DHT22;55472;50.060;21.960;2022-11-23T15:29:58;-1.10;99.90
68485;DHT22;55472;50.060;21.960;2022-11-23T15:32:30;-1.10;99.90
68485;DHT22;55472;50.060;21.960;2022-11-23T15:35:06;-1.10;99.90
68485;DHT22;55472;50.060;21.960;2022-11-23T15:37:44;-1.20;99.90
68485;DHT22;55472;50.060;21.960;2022-11-23T15:40:16;-1.20;99.90
68485;DHT22;55472;50.060;21.960;2022-11-23T15:42:45;-1.20;99.90
68485;DHT22;55472;50.060;21.960;2022-11-23T15:48:34;-1.20;99.90
68485;DHT22;55472;50.060;21.960;2022-11-23T15:51:04;-1.20;99.90
68485;DHT22;55472;50.060;21.960;2022-11-23T15:53:58;-1.20;99.90
68485;DHT22;55472;50.060;21.960;2022-11-23T15:56:36;-1.20;99.90
68485;DHT22;55472;50.060;21.960;2022-11-23T15:59:44;-1.20;99.90
68485;DHT22;55472;50.060;21.960;2022-11-23T16:02:24;-1.20;99.90
68485;DHT22;55472;50.060;21.960;2022-11-23T16:05:11;-1.30;99.90
68485;DHT22;55472;50.060;21.960;2022-11-23T16:07:52;-1.30;99.90
68485;DHT22;55472;50.060;21.960;2022-11-23T16:10:23;-1.20;99.90
68485;DHT22;55472;50.060;21.960;2022-11-23T16:13:01;-1.30;99.90
68485;DHT22;55472;50.060;21.960;2022-11-23T16:18:21;-1.30;99.90
68485;DHT22;55472;50.060;21.960;2022-11-23T16:20:54;-1.30;99.90
68485;DHT22;55472;50.060;21.960;2022-11-23T16:23:44;-1.20;99.90
68485;DHT22;55472;50.060;21.960;2022-11-23T16:26:13;-1.20;99.90
68485;DHT22;55472;50.060;21.960;2022-11-23T16:28:48;-1.30;99.90
68485;DHT22;55472;50.060;21.960;2022-11-23T16:31:28;-1.20;99.90
68485;DHT22;55472;50.060;21.960;2022-11-23T16:34:09;-1.20;99.90
68485;DHT22;55472;50.060;21.960;2022-11-23T16:36:42;-1.30;99.90
68485;DHT22;55472;50.060;21.960;2022-11-23T16:39:08;-1.20;99.90
68485;DHT22;55472;50.060;21.960;2022-11-23T16:41:34;-1.20;99.90
68485;DHT22;55472;50.060;21.960;2022-11-23T16:44:00;-1.20;99.90
68485;DHT22;55472;50.060;21.960;2022-11-23T16:46:26;-1.20;99.90
68485;DHT22;55472;50.060;21.960;2022-11-23T16:48:52;-1.20;99.90
68485;DHT22;55472;50.060;21.960;2022-11-23T16:51:21;-1.20;99.90
68485;DHT22;55472;50.060;21.960;2022-11-23T16:53:48;-1.20;99.90
68485;DHT22;55472;50.060;21.960;2022-11-23T16:56:17;-1.20;99.90
68485;DHT22;55472;50.060;21.960;2022-11-23T16:58:45;-1.10;99.90
68485;DHT22;55472;50.060;21.960;2022-11-23T17:01:23;-1.10;99.90
68485;DHT22;55472;50.060;21.960;2022-11-23T17:03:51;-1.10;99.90
68485;DHT22;55472;50.060;21.960;2022-11-23T17:06:18;-1.10;99.90
68485;DHT22;55472;50.060;21.960;2022-11-23T17:08:49;-1.10;99.90
68485;DHT22;55472;50.060;21.960;2022-11-23T17:11:18;-1.10;99.90
68485;DHT22;55472;50.060;21.960;2022-11-23T17:13:46;-1.10;99.90
68485;DHT22;55472;50.060;21.960;2022-11-23T17:16:18;-1.10;99.90
68485;DHT22;55472;50.060;21.960;2022-11-23T17:18:46;-1.10;99.90
68485;DHT22;55472;50.060;21.960;2022-11-23T17:21:12;-1.10;99.90
68485;DHT22;55472;50.060;21.960;2022-11-23T17:23:39;-1.10;99.90
68485;DHT22;55472;50.060;21.960;2022-11-23T17:26:27;-1.10;99.90
68485;DHT22;55472;50.060;21.960;2022-11-23T17:28:56;-1.10;99.90
68485;DHT22;55472;50.060;21.960;2022-11-23T17:31:24;-1.10;99.90
68485;DHT22;55472;50.060;21.960;2022-11-23T17:33:50;-1.00;99.90
68485;DHT22;55472;50.060;21.960;2022-11-23T17:36:16;-1.00;99.90
68485;DHT22;55472;50.060;21.960;2022-11-23T17:38:43;-1.00;99.90
68485;DHT22;55472;50.060;21.960;2022-11-23T17:41:12;-1.00;99.90
68485;DHT22;55472;50.060;21.960;2022-11-23T17:43:39;-1.00;99.90
68485;DHT22;55472;50.060;21.960;2022-11-23T17:46:07;-1.00;99.90
68485;DHT22;55472;50.060;21.960;2022-11-23T17:48:39;-0.90;99.90
68485;DHT22;55472;50.060;21.960;2022-11-23T17:51:09;-0.90;99.90
68485;DHT22;55472;50.060;21.960;2022-11-23T17:53:35;-0.90;99.90